Time;durP1;ratioP1;P1;durP2;ratioP2;P2;SDS_P1;SDS_P2;PMS_P1;PMS_P2;Temp;Humidity;BMP_temperature;BMP_pressure;BME280_temperature;BME280_humidity;BME280_pressure;Samples;Min_cycle;Max_cycle;Signal;HPM_P1;HPM_P2
2023/12/02 00:01:27;;;;;;;26.53;13.10;;;-1.60;99.90;;;;;;5029733;28;20183;-76
2023/12/02 00:03:53;;;;;;;26.63;12.23;;;-1.70;99.90;;;;;;5028657;28;20193;-75
2023/12/02 00:06:19;;;;;;;30.77;12.30;;;-1.70;99.90;;;;;;5030263;28;20640;-75
2023/12/02 00:08:45;;;;;;;29.50;12.93;;;-1.70;99.90;;;;;;5028951;28;20236;-75
2023/12/02 00:11:11;;;;;;;29.30;12.13;;;-1.40;99.90;;;;;;5029458;28;20213;-75
2023/12/02 00:13:36;;;;;;;24.23;12.47;;;-1.50;99.90;;;;;;5028963;28;20261;-75
2023/12/02 00:16:03;;;;;;;24.40;12.73;;;-1.60;99.90;;;;;;5029992;28;20261;-75
2023/12/02 00:18:29;;;;;;;32.63;13.60;;;;;;;;;;5028466;28;20193;-74
2023/12/02 00:20:55;;;;;;;22.23;12.20;;;;;;;;;;5012168;28;20199;-74
2023/12/02 00:23:21;;;;;;;25.80;12.67;;;-1.10;99.90;;;;;;5028536;28;20178;-74
2023/12/02 00:25:48;;;;;;;24.90;12.00;;;;;;;;;;5029263;28;20177;-75
2023/12/02 00:28:14;;;;;;;25.33;12.40;;;;;;;;;;5029962;28;20185;-75
2023/12/02 00:30:40;;;;;;;23.80;11.53;;;;;;;;;;5028874;28;20288;-74
2023/12/02 00:33:06;;;;;;;24.67;11.57;;;-1.30;99.90;;;;;;5029197;28;20184;-74
2023/12/02 00:35:31;;;;;;;23.67;12.40;;;-1.10;99.90;;;;;;5011476;28;20188;-74
2023/12/02 00:37:57;;;;;;;29.97;13.23;;;-1.40;99.90;;;;;;5021757;28;20189;-75
2023/12/02 00:40:23;;;;;;;26.07;12.43;;;-1.00;99.90;;;;;;5028181;28;20606;-75
2023/12/02 00:42:50;;;;;;;24.73;12.40;;;;;;;;;;5029172;28;20189;-76
2023/12/02 00:45:15;;;;;;;29.07;13.00;;;-1.20;99.90;;;;;;5028315;28;20192;-74
2023/12/02 00:47:42;;;;;;;31.53;13.37;;;;;;;;;;5029983;28;20189;-74
2023/12/02 00:50:08;;;;;;;29.47;13.50;;;-0.90;99.90;;;;;;5010731;28;20184;-74
2023/12/02 00:52:34;;;;;;;25.03;13.23;;;;;;;;;;5028818;28;21392;-74
2023/12/02 00:55:00;;;;;;;26.57;13.67;;;;;;;;;;5011645;28;20664;-75
2023/12/02 00:57:25;;;;;;;29.10;14.23;;;-0.70;99.90;;;;;;5028997;28;20188;-76
2023/12/02 00:59:51;;;;;;;25.17;13.23;;;-0.90;99.90;;;;;;5029713;28;20264;-75
2023/12/02 01:02:17;;;;;;;30.00;13.40;;;-0.70;99.90;;;;;;5032019;28;20192;-75
2023/12/02 01:04:43;;;;;;;25.57;12.90;;;-0.90;99.90;;;;;;5025836;28;20734;-75
2023/12/02 01:07:08;;;;;;;26.97;12.87;;;-0.30;99.90;;;;;;5031914;28;20188;-76
2023/12/02 01:09:34;;;;;;;27.47;13.27;;;-0.50;99.90;;;;;;5033066;28;20587;-75
2023/12/02 01:12:00;;;;;;;28.97;12.53;;;;;;;;;;5031961;28;20214;-75
2023/12/02 01:14:26;;;;;;;25.97;13.13;;;;;;;;;;5033615;28;20236;-75
2023/12/02 01:16:52;;;;;;;30.03;13.00;;;-0.40;99.90;;;;;;5031899;28;20206;-75
2023/12/02 01:19:18;;;;;;;33.13;14.53;;;;;;;;;;5032659;28;20174;-74
2023/12/02 01:21:44;;;;;;;35.17;16.30;;;-0.30;99.90;;;;;;5037652;28;20201;-74
2023/12/02 01:24:10;;;;;;;35.10;14.70;;;-0.60;99.90;;;;;;5042597;28;20173;-76
2023/12/02 01:26:36;;;;;;;38.87;17.07;;;;;;;;;;5033594;28;20246;-74
2023/12/02 01:29:02;;;;;;;36.43;16.00;;;0.00;99.90;;;;;;5032662;28;20188;-73
2023/12/02 01:31:28;;;;;;;39.03;16.40;;;;;;;;;;5029749;28;20214;-73
2023/12/02 01:33:53;;;;;;;43.83;16.93;;;-0.30;99.90;;;;;;5031007;28;20182;-75
2023/12/02 01:36:19;;;;;;;42.43;16.70;;;-0.10;99.90;;;;;;5033201;28;20196;-72
2023/12/02 01:38:44;;;;;;;44.97;17.20;;;-0.20;99.90;;;;;;5031933;28;20209;-76
2023/12/02 01:41:10;;;;;;;45.10;17.13;;;-0.20;99.90;;;;;;5029242;28;20232;-75
2023/12/02 01:43:37;;;;;;;42.23;16.80;;;-0.40;99.90;;;;;;5031174;28;20452;-75
2023/12/02 01:46:03;;;;;;;44.27;17.07;;;;;;;;;;5028781;28;20190;-75
2023/12/02 01:48:34;;;;;;;45.00;16.73;;;-0.20;99.90;;;;;;5043682;28;20185;-75
2023/12/02 01:51:00;;;;;;;42.77;17.33;;;0.10;99.90;;;;;;5057424;28;20244;-75
2023/12/02 01:53:26;;;;;;;46.93;17.77;;;;;;;;;;5035539;28;20174;-75
2023/12/02 01:55:52;;;;;;;50.83;17.73;;;0.10;99.90;;;;;;5032612;28;20189;-75
2023/12/02 01:58:19;;;;;;;38.20;16.23;;;0.10;99.90;;;;;;5032809;28;20204;-76
2023/12/02 02:00:45;;;;;;;42.33;16.40;;;0.00;99.90;;;;;;5031291;28;20267;-76
2023/12/02 02:03:10;;;;;;;34.60;16.47;;;0.10;99.90;;;;;;5031640;28;20583;-76
2023/12/02 02:05:37;;;;;;;34.93;16.23;;;;;;;;;;5030892;28;20565;-76
2023/12/02 02:08:03;;;;;;;36.70;15.73;;;;;;;;;;5032611;28;20533;-73
2023/12/02 02:10:29;;;;;;;38.33;16.00;;;;;;;;;;5030752;28;20190;-73
2023/12/02 02:12:54;;;;;;;37.47;16.40;;;0.40;99.90;;;;;;5030843;28;20186;-76
2023/12/02 02:15:20;;;;;;;36.17;16.03;;;0.30;99.90;;;;;;5030898;28;20181;-76
2023/12/02 02:17:46;;;;;;;37.13;16.53;;;0.50;99.90;;;;;;5027866;28;20195;-76
2023/12/02 02:20:12;;;;;;;36.87;15.40;;;0.30;99.90;;;;;;5031938;28;20189;-76
2023/12/02 02:22:38;;;;;;;35.17;15.33;;;0.20;99.90;;;;;;5031280;28;20701;-76
2023/12/02 02:25:04;;;;;;;36.57;16.10;;;0.30;99.90;;;;;;5032284;28;20186;-74
2023/12/02 02:27:31;;;;;;;41.27;16.57;;;;;;;;;;5030544;28;20174;-76
2023/12/02 02:29:57;;;;;;;35.33;15.87;;;0.10;99.90;;;;;;5031339;28;20264;-75
2023/12/02 02:32:23;;;;;;;33.43;15.50;;;0.30;99.90;;;;;;5030290;28;20238;-77
2023/12/02 02:34:49;;;;;;;35.47;15.57;;;0.50;99.90;;;;;;5022271;28;20205;-76
2023/12/02 02:37:14;;;;;;;46.80;19.23;;;0.30;99.90;;;;;;5030424;28;20201;-75
2023/12/02 02:39:40;;;;;;;43.73;17.33;;;0.30;99.90;;;;;;5030868;28;20698;-75
2023/12/02 02:42:06;;;;;;;33.03;15.37;;;0.20;99.90;;;;;;5030587;28;20270;-77
2023/12/02 02:44:33;;;;;;;37.97;17.30;;;0.10;99.90;;;;;;5031402;28;20182;-75
2023/12/02 02:46:58;;;;;;;36.80;15.80;;;0.50;99.90;;;;;;5030711;28;20648;-75
2023/12/02 02:49:24;;;;;;;39.83;16.10;;;;;;;;;;5030196;28;20186;-75
2023/12/02 02:51:50;;;;;;;38.73;16.80;;;0.50;99.90;;;;;;5031630;28;20853;-77
2023/12/02 02:54:16;;;;;;;39.23;15.83;;;0.30;99.90;;;;;;5030107;28;20204;-77
2023/12/02 02:56:43;;;;;;;30.00;14.10;;;0.30;99.90;;;;;;5031538;28;20181;-77
2023/12/02 02:59:09;;;;;;;33.20;14.90;;;0.60;99.90;;;;;;5029994;28;20189;-77
2023/12/02 03:01:35;;;;;;;31.53;14.63;;;0.30;99.90;;;;;;5030534;28;20181;-74
2023/12/02 03:04:01;;;;;;;33.00;15.57;;;0.30;99.90;;;;;;5030041;28;20220;-75
2023/12/02 03:06:27;;;;;;;34.03;14.83;;;;;;;;;;5031134;28;20213;-77
2023/12/02 03:08:53;;;;;;;33.03;15.03;;;;;;;;;;5030244;28;20174;-77
2023/12/02 03:11:19;;;;;;;36.73;15.63;;;0.10;99.90;;;;;;5030996;28;20702;-78
2023/12/02 03:13:45;;;;;;;36.13;14.90;;;0.30;99.90;;;;;;5030358;28;20667;-77
2023/12/02 03:16:10;;;;;;;34.13;15.00;;;0.00;99.90;;;;;;5030525;28;20179;-77
2023/12/02 03:18:36;;;;;;;33.47;14.43;;;0.40;99.90;;;;;;5031114;28;20178;-77
2023/12/02 03:21:02;;;;;;;30.03;14.07;;;;;;;;;;5029528;28;20638;-75
2023/12/02 03:23:28;;;;;;;34.53;14.73;;;;;;;;;;5030181;28;20644;-75
2023/12/02 03:25:54;;;;;;;28.03;13.63;;;;;;;;;;5029487;28;20178;-76
2023/12/02 03:28:21;;;;;;;50.67;14.70;;;0.30;99.90;;;;;;5030160;28;20240;-74
2023/12/02 03:30:47;;;;;;;30.80;14.10;;;;;;;;;;5029230;28;20271;-74
2023/12/02 03:33:13;;;;;;;29.57;14.33;;;0.00;99.90;;;;;;5030785;28;20185;-74
2023/12/02 03:35:39;;;;;;;31.10;13.67;;;;;;;;;;5028369;28;20185;-74
2023/12/02 03:38:05;;;;;;;29.37;14.57;;;;;;;;;;5030778;28;20224;-75
2023/12/02 03:40:31;;;;;;;32.70;15.50;;;;;;;;;;5029235;28;20245;-75
2023/12/02 03:42:56;;;;;;;36.83;15.37;;;0.00;99.90;;;;;;5029949;28;20185;-74
2023/12/02 03:45:22;;;;;;;29.30;14.43;;;0.10;99.90;;;;;;5030825;28;20189;-75
2023/12/02 03:47:48;;;;;;;32.60;15.23;;;0.10;99.90;;;;;;5029134;28;20189;-75
2023/12/02 03:50:13;;;;;;;32.60;14.53;;;0.10;99.90;;;;;;5030620;28;20235;-75
2023/12/02 03:52:41;;;;;;;34.17;14.93;;;;;;;;;;5029237;28;20237;-74
2023/12/02 03:55:07;;;;;;;35.57;14.97;;;0.00;99.90;;;;;;5030515;28;20188;-75
2023/12/02 03:57:32;;;;;;;42.30;15.90;;;-0.10;99.90;;;;;;5028650;28;20183;-75
2023/12/02 03:59:58;;;;;;;30.33;13.63;;;0.60;99.90;;;;;;5030510;28;20256;-74
2023/12/02 04:02:24;;;;;;;30.97;14.30;;;0.10;99.90;;;;;;5030072;28;20181;-75
2023/12/02 04:04:49;;;;;;;39.90;15.70;;;0.00;99.90;;;;;;5016532;28;20204;-74
2023/12/02 04:07:15;;;;;;;28.90;14.40;;;0.00;99.90;;;;;;5040128;28;20213;-74
2023/12/02 04:09:43;;;;;;;31.80;15.33;;;;;;;;;;5049999;28;20165;-74
2023/12/02 04:12:09;;;;;;;35.33;14.93;;;0.10;99.90;;;;;;5047691;28;20213;-76
2023/12/02 04:14:35;;;;;;;30.83;14.23;;;;;;;;;;5030494;28;20224;-76
2023/12/02 04:17:01;;;;;;;34.93;15.87;;;;;;;;;;5030757;28;20170;-75
2023/12/02 04:19:27;;;;;;;36.73;15.33;;;;;;;;;;5028707;28;20173;-75
2023/12/02 04:21:53;;;;;;;36.00;15.10;;;0.20;99.90;;;;;;5030211;28;20174;-76
2023/12/02 04:24:19;;;;;;;38.10;14.90;;;;;;;;;;5028144;28;20236;-76
2023/12/02 04:26:45;;;;;;;33.53;15.33;;;-0.10;99.90;;;;;;5030256;28;20516;-76
2023/12/02 04:29:10;;;;;;;31.70;15.73;;;0.00;99.90;;;;;;5010785;28;20185;-76
2023/12/02 04:31:37;;;;;;;34.10;15.47;;;0.10;99.90;;;;;;5029149;28;20221;-75
2023/12/02 04:34:04;;;;;;;30.20;14.00;;;-0.10;99.90;;;;;;5028710;28;20236;-76
2023/12/02 04:36:30;;;;;;;30.53;14.83;;;;;;;;;;5032632;28;20223;-76
2023/12/02 04:38:56;;;;;;;28.53;13.80;;;-0.20;99.90;;;;;;5033791;28;20782;-76
2023/12/02 04:41:21;;;;;;;35.03;13.90;;;0.00;99.90;;;;;;5031620;28;20264;-76
2023/12/02 04:43:47;;;;;;;31.43;13.97;;;-0.20;99.90;;;;;;5033758;28;20640;-76
2023/12/02 04:46:13;;;;;;;26.37;13.33;;;-0.60;99.90;;;;;;5032176;28;20630;-75
2023/12/02 04:48:39;;;;;;;29.90;13.70;;;;;;;;;;5032940;28;20674;-75
2023/12/02 04:51:05;;;;;;;28.77;12.67;;;-0.40;99.90;;;;;;5014559;28;20272;-76
2023/12/02 04:53:30;;;;;;;50.33;15.17;;;-0.30;99.90;;;;;;5033751;28;20648;-76
2023/12/02 04:55:56;;;;;;;30.33;13.33;;;0.80;99.90;;;;;;5031539;28;20446;-76
2023/12/02 04:58:22;;;;;;;30.40;14.13;;;;;;;;;;5032960;28;20217;-76
2023/12/02 05:00:48;;;;;;;32.70;14.27;;;0.10;99.90;;;;;;5031737;28;20178;-76
2023/12/02 05:03:17;;;;;;;33.60;15.20;;;-0.20;99.90;;;;;;5033417;28;20227;-75
2023/12/02 05:05:43;;;;;;;33.37;15.27;;;;;;;;;;5032576;28;20187;-75
2023/12/02 05:08:09;;;;;;;32.77;14.37;;;0.00;99.90;;;;;;5032629;28;20178;-76
2023/12/02 05:10:35;;;;;;;39.73;15.23;;;0.00;99.90;;;;;;5033274;28;20280;-75
2023/12/02 05:13:01;;;;;;;51.73;15.67;;;-0.20;99.90;;;;;;5032306;28;20190;-76
2023/12/02 05:15:27;;;;;;;40.73;15.00;;;-0.20;99.90;;;;;;5033217;28;20185;-76
2023/12/02 05:17:53;;;;;;;31.87;14.60;;;;;;;;;;5031787;28;20185;-76
2023/12/02 05:20:19;;;;;;;35.43;15.53;;;0.50;99.90;;;;;;5033086;28;20182;-75
2023/12/02 05:22:45;;;;;;;27.87;13.83;;;-0.20;99.90;;;;;;5031706;28;20190;-76
2023/12/02 05:25:10;;;;;;;43.87;14.83;;;-0.10;99.90;;;;;;5032331;28;20274;-75
2023/12/02 05:27:36;;;;;;;34.43;14.07;;;-0.20;99.90;;;;;;5031578;28;20182;-76
2023/12/02 05:30:04;;;;;;;29.23;14.23;;;;;;;;;;5032552;28;20182;-76
2023/12/02 05:32:29;;;;;;;30.73;14.60;;;-0.20;99.90;;;;;;5031047;28;20205;-77
2023/12/02 05:34:55;;;;;;;31.20;14.23;;;;;;;;;;5032475;28;20548;-76
2023/12/02 05:37:21;;;;;;;25.83;13.30;;;1.20;99.90;;;;;;5032060;28;20197;-75
2023/12/02 05:39:47;;;;;;;29.03;13.83;;;;;;;;;;5010071;28;20219;-75
2023/12/02 05:42:13;;;;;;;31.67;14.33;;;-0.10;99.90;;;;;;5013024;28;20181;-76
2023/12/02 05:44:41;;;;;;;32.27;14.73;;;-0.20;99.90;;;;;;5010259;28;20535;-75
2023/12/02 05:47:07;;;;;;;30.27;13.80;;;;;;;;;;5011030;28;20171;-75
2023/12/02 05:49:33;;;;;;;34.87;15.27;;;-0.20;99.90;;;;;;5011949;28;20607;-74
2023/12/02 05:51:58;;;;;;;38.40;14.67;;;-0.10;99.90;;;;;;5012109;28;20216;-75
2023/12/02 05:54:24;;;;;;;37.63;16.33;;;-0.40;99.90;;;;;;5011406;28;20253;-76
2023/12/02 05:56:52;;;;;;;34.73;15.57;;;0.90;99.90;;;;;;5012930;28;20182;-79
2023/12/02 05:59:19;;;;;;;47.43;16.27;;;-0.10;99.90;;;;;;5012069;28;20591;-75
2023/12/02 06:01:45;;;;;;;31.63;15.47;;;1.10;99.90;;;;;;5008554;28;20182;-75
2023/12/02 06:04:11;;;;;;;36.03;16.40;;;;;;;;;;5011385;28;20183;-76
2023/12/02 06:06:37;;;;;;;38.07;17.13;;;-0.10;99.90;;;;;;5011591;28;20182;-75
2023/12/02 06:09:03;;;;;;;88.30;17.97;;;;;;;;;;5012150;28;20188;-75
2023/12/02 06:11:29;;;;;;;49.80;14.77;;;-0.10;99.90;;;;;;5011067;28;20229;-75
2023/12/02 06:13:54;;;;;;;45.37;18.27;;;-0.10;99.90;;;;;;5012992;28;20179;-75
2023/12/02 06:16:20;;;;;;;45.80;18.67;;;;;;;;;;5012627;28;20915;-76
2023/12/02 06:18:46;;;;;;;140.17;18.13;;;;;;;;;;5009506;28;20267;-76
2023/12/02 06:21:12;;;;;;;39.30;16.83;;;;;;;;;;5009898;28;20245;-76
2023/12/02 06:23:38;;;;;;;46.77;18.17;;;-0.30;99.90;;;;;;5011826;28;20221;-75
2023/12/02 06:26:04;;;;;;;51.77;17.83;;;-0.40;99.90;;;;;;5018126;28;20182;-75
2023/12/02 06:28:31;;;;;;;41.57;16.63;;;;;;;;;;5037799;28;20189;-77
2023/12/02 06:30:57;;;;;;;68.77;15.97;;;0.00;99.90;;;;;;5018634;28;20655;-76
2023/12/02 06:33:23;;;;;;;46.13;15.83;;;-0.50;99.90;;;;;;5014011;28;20328;-76
2023/12/02 06:35:49;;;;;;;49.57;16.10;;;-0.30;99.90;;;;;;5011968;28;20692;-76
2023/12/02 06:38:14;;;;;;;50.00;14.17;;;-0.60;99.90;;;;;;5010300;28;20171;-75
2023/12/02 06:40:40;;;;;;;85.07;16.73;;;-0.60;99.90;;;;;;5027453;28;20355;-76
2023/12/02 06:43:06;;;;;;;54.80;16.20;;;-0.50;99.90;;;;;;5030373;28;20243;-76
2023/12/02 06:45:34;;;;;;;74.27;14.43;;;-0.60;99.90;;;;;;5030612;28;20182;-76
2023/12/02 06:47:59;;;;;;;77.73;16.43;;;0.30;99.90;;;;;;5030758;28;20225;-75
2023/12/02 06:50:25;;;;;;;64.83;14.60;;;-0.60;99.90;;;;;;5038148;28;20209;-76
2023/12/02 06:52:51;;;;;;;48.93;11.30;;;-0.50;99.90;;;;;;5039200;28;20581;-74
2023/12/02 06:55:17;;;;;;;39.77;14.67;;;;;;;;;;5013598;28;20638;-75
2023/12/02 06:57:43;;;;;;;76.83;14.27;;;-0.20;99.90;;;;;;5030427;28;20184;-74
2023/12/02 07:00:10;;;;;;;91.77;15.03;;;-0.60;99.90;;;;;;5011945;28;20193;-74
2023/12/02 07:02:36;;;;;;;49.47;14.10;;;-0.50;99.90;;;;;;5031259;28;20631;-74
2023/12/02 07:05:02;;;;;;;51.50;14.27;;;-0.40;99.90;;;;;;5030243;28;20185;-74
2023/12/02 07:07:28;;;;;;;38.00;13.70;;;-0.40;99.90;;;;;;5030898;28;20186;-74
2023/12/02 07:09:54;;;;;;;66.73;13.93;;;;;;;;;;5029579;28;20188;-74
2023/12/02 07:12:20;;;;;;;30.77;11.27;;;;;;;;;;5031101;28;20248;-74
2023/12/02 07:14:45;;;;;;;67.30;13.70;;;-0.80;99.90;;;;;;5029552;28;20225;-74
2023/12/02 07:17:11;;;;;;;57.30;12.97;;;;;;;;;;5030337;28;20186;-74
2023/12/02 07:19:37;;;;;;;62.80;12.80;;;-0.70;99.90;;;;;;5029515;28;20662;-74
2023/12/02 07:22:03;;;;;;;44.33;11.23;;;-0.90;99.90;;;;;;5030948;28;20205;-75
2023/12/02 07:24:29;;;;;;;64.37;12.53;;;;;;;;;;5029749;28;20228;-74
2023/12/02 07:26:54;;;;;;;89.67;11.93;;;-0.90;99.90;;;;;;5029882;28;20180;-75
2023/12/02 07:29:20;;;;;;;39.03;12.90;;;-0.80;99.90;;;;;;5030273;28;20542;-74
2023/12/02 07:31:45;;;;;;;26.43;12.30;;;-0.90;99.90;;;;;;5025422;28;20218;-75
2023/12/02 07:34:11;;;;;;;41.33;12.70;;;-0.50;99.90;;;;;;5033610;28;20173;-74
2023/12/02 07:36:37;;;;;;;64.10;12.73;;;;;;;;;;5029127;28;20213;-74
2023/12/02 07:39:04;;;;;;;72.83;14.30;;;;;;;;;;5029720;28;20183;-74
2023/12/02 07:41:30;;;;;;;37.47;12.37;;;;;;;;;;5029919;28;20200;-74
2023/12/02 07:43:56;;;;;;;33.53;12.10;;;-0.50;99.90;;;;;;5029487;28;20177;-74
2023/12/02 07:46:22;;;;;;;27.70;12.90;;;-0.90;99.90;;;;;;5028646;28;20539;-74
2023/12/02 07:48:47;;;;;;;42.73;13.13;;;-0.60;99.90;;;;;;5029427;28;20201;-75
2023/12/02 07:51:13;;;;;;;48.90;14.03;;;;;;;;;;5029156;28;20212;-76
2023/12/02 07:53:39;;;;;;;42.47;13.43;;;-0.40;99.90;;;;;;5029486;28;20185;-76
2023/12/02 07:56:05;;;;;;;55.27;13.67;;;-0.30;99.90;;;;;;5030384;28;20185;-74
2023/12/02 07:58:31;;;;;;;32.97;12.63;;;-0.70;99.90;;;;;;5027670;28;20219;-75
2023/12/02 08:00:57;;;;;;;32.23;12.07;;;;;;;;;;5030396;28;20177;-74
2023/12/02 08:03:23;;;;;;;39.60;11.37;;;-0.70;99.90;;;;;;5028804;28;20188;-75
2023/12/02 08:05:48;;;;;;;39.87;11.63;;;-0.70;99.90;;;;;;5029334;28;20181;-76
2023/12/02 08:08:14;;;;;;;35.00;12.60;;;;;;;;;;5029372;28;20188;-75
2023/12/02 08:10:40;;;;;;;41.17;12.83;;;-0.80;99.90;;;;;;5028800;28;20270;-75
2023/12/02 08:13:06;;;;;;;72.43;13.10;;;;;;;;;;5029755;28;20270;-76
2023/12/02 08:15:31;;;;;;;54.47;13.73;;;-1.00;99.90;;;;;;5029347;28;20559;-75
2023/12/02 08:17:57;;;;;;;43.97;12.17;;;;;;;;;;5029561;28;20186;-75
2023/12/02 08:20:23;;;;;;;72.17;12.50;;;-1.20;99.90;;;;;;5027995;28;20200;-74
2023/12/02 08:22:49;;;;;;;47.93;13.10;;;;;;;;;;5029743;28;20560;-74
2023/12/02 08:25:15;;;;;;;29.27;11.53;;;-1.20;99.90;;;;;;5028416;28;20189;-77
2023/12/02 08:27:40;;;;;;;42.93;12.13;;;-1.00;99.90;;;;;;5029388;28;20175;-76
2023/12/02 08:30:07;;;;;;;30.27;9.60;;;-1.20;99.90;;;;;;5028680;28;20216;-76
2023/12/02 08:32:33;;;;;;;26.60;11.97;;;-1.20;99.90;;;;;;5029230;28;20213;-77
2023/12/02 08:34:59;;;;;;;23.33;10.20;;;-1.10;99.90;;;;;;5029610;28;20259;-77
2023/12/02 08:37:25;;;;;;;27.93;11.20;;;-1.00;99.90;;;;;;5029134;28;20176;-77
2023/12/02 08:39:51;;;;;;;35.20;11.30;;;-1.20;99.90;;;;;;5028252;28;20225;-75
2023/12/02 08:42:17;;;;;;;28.27;10.97;;;-1.30;99.90;;;;;;5026197;28;20180;-75
2023/12/02 08:44:42;;;;;;;18.60;9.60;;;-1.20;99.90;;;;;;5028655;28;20178;-79
2023/12/02 08:47:08;;;;;;;25.43;10.80;;;-0.80;99.90;;;;;;5029765;28;20176;-77
2023/12/02 08:49:33;;;;;;;26.07;11.70;;;-1.00;99.90;;;;;;5046242;28;20163;-76
2023/12/02 08:51:59;;;;;;;28.57;12.43;;;;;;;;;;5050921;28;20227;-76
2023/12/02 08:54:25;;;;;;;41.87;10.90;;;-0.60;99.90;;;;;;5032625;28;20212;-74
2023/12/02 08:56:51;;;;;;;32.60;10.57;;;-1.10;99.90;;;;;;5029289;28;20186;-75
2023/12/02 08:59:17;;;;;;;47.37;10.90;;;;;;;;;;5028411;28;20280;-73
2023/12/02 09:01:43;;;;;;;24.57;10.03;;;;;;;;;;5028806;28;20182;-75
2023/12/02 09:04:09;;;;;;;35.63;10.63;;;-1.20;99.90;;;;;;5011713;28;20183;-74
2023/12/02 09:06:35;;;;;;;47.57;11.00;;;;;;;;;;5027970;28;20179;-78
2023/12/02 09:09:01;;;;;;;28.60;11.17;;;;;;;;;;5029126;28;20178;-72
2023/12/02 09:11:27;;;;;;;47.07;10.70;;;0.60;99.90;;;;;;5028702;28;20224;-77
2023/12/02 09:13:53;;;;;;;24.63;10.53;;;-1.40;99.90;;;;;;5028781;28;20546;-75
2023/12/02 09:16:21;;;;;;;21.03;10.47;;;-1.00;99.90;;;;;;5029576;28;20646;-75
2023/12/02 09:18:47;;;;;;;25.53;10.03;;;-0.60;99.90;;;;;;5028622;28;20753;-77
2023/12/02 09:21:42;;;;;;;22.67;10.50;;;-0.80;99.90;;;;;;5026072;28;20637;-75
2023/12/02 09:24:27;;;;;;;26.07;10.87;;;-0.90;99.90;;;;;;5030226;28;20181;-76
2023/12/02 09:26:52;;;;;;;23.87;10.93;;;-0.80;99.90;;;;;;5032551;28;20174;-76
2023/12/02 09:29:19;;;;;;;21.10;10.80;;;-0.40;99.90;;;;;;5033129;28;20192;-75
2023/12/02 09:31:45;;;;;;;27.23;11.03;;;-0.40;99.90;;;;;;5031584;28;20253;-75
2023/12/02 09:34:39;;;;;;;37.67;12.70;;;-0.50;99.90;;;;;;5032962;28;20252;-75
2023/12/02 09:37:05;;;;;;;76.77;13.07;;;;;;;;;;5039175;28;20178;-76
2023/12/02 09:40:17;;;;;;;74.63;13.80;;;-1.00;99.90;;;;;;5038642;28;20303;-74
2023/12/02 09:42:55;;;;;;;80.33;14.07;;;-0.90;99.90;;;;;;5048401;28;20192;-75
2023/12/02 09:45:22;;;;;;;71.37;14.37;;;-0.90;99.90;;;;;;5027566;28;20176;-74
2023/12/02 09:48:05;;;;;;;36.43;13.80;;;-0.80;99.90;;;;;;5024002;28;20180;-73
2023/12/02 09:50:42;;;;;;;148.97;15.53;;;-0.60;99.90;;;;;;5031266;28;20550;-74
2023/12/02 09:53:23;;;;;;;32.43;13.13;;;-0.90;99.90;;;;;;5031703;28;20193;-75
2023/12/02 09:56:01;;;;;;;53.70;14.17;;;-0.60;99.90;;;;;;5028954;28;20185;-75
2023/12/02 09:58:41;;;;;;;31.33;13.63;;;-0.50;99.90;;;;;;5031859;28;20188;-76
2023/12/02 10:01:36;;;;;;;35.90;14.43;;;-0.20;99.90;;;;;;5032687;28;20662;-75
2023/12/02 10:04:29;;;;;;;39.87;14.17;;;-0.50;99.90;;;;;;5030824;28;20213;-75
2023/12/02 10:07:05;;;;;;;40.43;14.23;;;-0.50;99.90;;;;;;5024541;28;20664;-74
2023/12/02 10:10:03;;;;;;;91.87;14.70;;;-0.50;99.90;;;;;;5021833;28;20185;-75
2023/12/02 10:12:56;;;;;;;96.77;16.00;;;-0.70;99.90;;;;;;5026797;28;20224;-75
2023/12/02 10:15:28;;;;;;;48.57;13.73;;;-0.30;99.90;;;;;;5028980;28;20180;-75
2023/12/02 10:17:58;;;;;;;45.53;13.73;;;-0.10;99.90;;;;;;5023272;28;20192;-74
2023/12/02 10:20:28;;;;;;;68.03;14.10;;;-0.50;99.90;;;;;;5029988;28;20181;-75
2023/12/02 10:23:19;;;;;;;52.57;13.53;;;-0.30;99.90;;;;;;5024247;28;20663;-75
2023/12/02 10:26:15;;;;;;;50.30;14.27;;;-0.60;99.90;;;;;;5031221;28;20175;-75
2023/12/02 10:28:47;;;;;;;29.77;13.93;;;-0.70;99.90;;;;;;5030400;28;20182;-75
2023/12/02 10:31:30;;;;;;;51.30;15.17;;;-0.30;99.90;;;;;;5031933;28;20220;-74
2023/12/02 10:34:32;;;;;;;62.17;16.23;;;-0.50;99.90;;;;;;5030318;28;20261;-76
2023/12/02 10:37:02;;;;;;;90.97;16.77;;;-0.80;99.90;;;;;;4974549;28;20292;-75
2023/12/02 10:39:49;;;;;;;57.53;15.90;;;-0.60;99.90;;;;;;5032177;28;20213;-74
2023/12/02 10:42:23;;;;;;;58.63;15.70;;;0.00;99.90;;;;;;5029302;28;20192;-75
2023/12/02 10:44:55;;;;;;;68.73;16.20;;;-0.30;99.90;;;;;;5031204;28;20166;-74
2023/12/02 10:47:21;;;;;;;55.53;15.27;;;-0.60;99.90;;;;;;5030770;28;20635;-74
2023/12/02 10:49:48;;;;;;;61.07;15.63;;;-0.50;99.90;;;;;;5031902;28;20185;-75
2023/12/02 10:52:16;;;;;;;50.60;15.67;;;-0.40;99.90;;;;;;5029649;28;20251;-75
2023/12/02 10:54:46;;;;;;;72.60;14.83;;;-0.70;99.90;;;;;;5036616;28;20317;-75
2023/12/02 10:57:12;;;;;;;41.60;15.33;;;;;;;;;;5046540;28;20192;-75
2023/12/02 10:59:54;;;;;;;53.47;13.17;;;-0.40;99.90;;;;;;5023326;28;20182;-75
2023/12/02 11:02:30;;;;;;;73.17;14.23;;;-0.40;99.90;;;;;;5012385;28;20177;-74
2023/12/02 11:05:18;;;;;;;40.97;14.63;;;-0.40;99.90;;;;;;5030812;28;20177;-74
2023/12/02 11:07:49;;;;;;;52.37;14.17;;;-0.10;99.90;;;;;;5028694;28;20716;-75
2023/12/02 11:10:19;;;;;;;36.97;13.00;;;-0.30;99.90;;;;;;5031684;28;20251;-74
2023/12/02 11:12:59;;;;;;;57.23;14.77;;;0.00;99.90;;;;;;5054973;28;20224;-75
2023/12/02 11:15:28;;;;;;;33.40;12.53;;;-0.30;99.90;;;;;;5038992;28;20182;-75
2023/12/02 11:17:57;;;;;;;46.43;12.07;;;-0.20;99.90;;;;;;5032938;28;20268;-75
2023/12/02 11:20:31;;;;;;;30.00;12.73;;;-0.50;99.90;;;;;;5029172;28;20201;-74
2023/12/02 11:23:34;;;;;;;35.23;12.47;;;-0.50;99.90;;;;;;5013344;28;20647;-74
2023/12/02 11:26:14;;;;;;;29.90;13.17;;;-0.20;99.90;;;;;;5027447;28;20682;-74
2023/12/02 11:29:10;;;;;;;32.90;14.20;;;0.00;99.90;;;;;;5029239;28;20206;-74
2023/12/02 11:32:05;;;;;;;37.70;13.53;;;0.00;99.90;;;;;;5023617;28;20205;-74
2023/12/02 11:34:33;;;;;;;39.07;14.57;;;0.00;99.90;;;;;;4989204;28;20197;-74
2023/12/02 11:37:14;;;;;;;35.00;14.90;;;0.10;99.90;;;;;;5029538;28;20194;-74
2023/12/02 11:39:58;;;;;;;37.13;14.30;;;0.20;99.90;;;;;;5029746;28;20273;-73
2023/12/02 11:42:28;;;;;;;49.43;12.53;;;0.00;99.90;;;;;;5023838;28;20228;-73
2023/12/02 11:45:08;;;;;;;52.10;13.53;;;-0.10;99.90;;;;;;5028827;28;20313;-74
2023/12/02 11:48:06;;;;;;;30.00;14.23;;;0.00;99.90;;;;;;5041397;28;20183;-74
2023/12/02 11:50:43;;;;;;;28.50;14.30;;;0.20;99.90;;;;;;5011195;28;20674;-74
2023/12/02 11:53:34;;;;;;;31.10;14.23;;;0.50;99.90;;;;;;5022943;28;20197;-74
2023/12/02 11:56:05;;;;;;;27.50;14.07;;;0.50;99.90;;;;;;5026064;28;20199;-73
2023/12/02 11:58:50;;;;;;;47.23;17.53;;;0.40;99.90;;;;;;5029020;28;20197;-74
2023/12/02 12:01:29;;;;;;;35.90;16.73;;;0.10;99.90;;;;;;5027695;28;20686;-74
2023/12/02 12:04:07;;;;;;;34.90;17.13;;;0.70;99.90;;;;;;5028847;28;20248;-75
2023/12/02 12:06:52;;;;;;;40.07;17.30;;;0.60;99.90;;;;;;5022613;28;20191;-74
2023/12/02 12:10:03;;;;;;;36.50;16.47;;;0.70;99.90;;;;;;5029584;28;20319;-74
2023/12/02 12:12:31;;;;;;;35.17;17.37;;;0.70;99.90;;;;;;4978627;28;20217;-74
2023/12/02 12:15:00;;;;;;;47.30;20.27;;;0.70;99.90;;;;;;5029832;28;20251;-74
2023/12/02 12:17:27;;;;;;;58.60;20.03;;;0.80;99.90;;;;;;5028773;28;20651;-74
2023/12/02 12:19:52;;;;;;;42.03;19.33;;;0.90;99.90;;;;;;5029465;28;20184;-73
2023/12/02 12:22:18;;;;;;;41.00;18.20;;;0.80;99.90;;;;;;5028533;28;20191;-75
2023/12/02 12:24:44;;;;;;;42.27;20.17;;;1.10;99.90;;;;;;5038627;28;20181;-74
2023/12/02 12:27:10;;;;;;;42.03;19.03;;;1.20;99.90;;;;;;5034657;28;20187;-75
2023/12/02 12:29:53;;;;;;;37.33;17.63;;;1.30;99.90;;;;;;5030396;28;20185;-74
2023/12/02 12:32:19;;;;;;;34.70;18.37;;;1.70;99.90;;;;;;5028840;28;20206;-75
2023/12/02 12:34:45;;;;;;;40.03;18.13;;;1.80;99.90;;;;;;5030055;28;20652;-75
2023/12/02 12:37:17;;;;;;;42.03;19.03;;;1.80;99.90;;;;;;5028440;28;20182;-75
2023/12/02 12:39:47;;;;;;;40.60;19.90;;;1.70;99.90;;;;;;5029198;28;20306;-75
2023/12/02 12:42:16;;;;;;;50.47;21.13;;;1.90;99.90;;;;;;5028482;28;20871;-75
2023/12/02 12:44:43;;;;;;;34.03;17.30;;;1.70;99.90;;;;;;5029854;28;20240;-75
2023/12/02 12:47:10;;;;;;;32.23;17.10;;;1.90;99.90;;;;;;5028135;28;20181;-77
2023/12/02 12:49:43;;;;;;;45.20;21.80;;;1.60;99.90;;;;;;5011991;28;20178;-75
2023/12/02 12:52:12;;;;;;;40.17;19.70;;;1.90;99.90;;;;;;5028264;28;20271;-76
2023/12/02 12:54:55;;;;;;;42.07;19.60;;;1.50;99.90;;;;;;5029268;28;20220;-75
2023/12/02 12:57:30;;;;;;;38.30;18.37;;;1.60;99.90;;;;;;5030990;28;20181;-75
2023/12/02 12:59:59;;;;;;;40.60;17.40;;;1.80;99.90;;;;;;5033811;28;20192;-75
2023/12/02 13:02:45;;;;;;;36.07;16.93;;;1.80;99.90;;;;;;5031925;28;20194;-74